Vaaraa aiheuttavia sääilmiöitä ei ole odotettavissa.    Ei varoituksia

Webkamera Lisätietoa Webcam


Yksityisiä sääasemia lähellä:

Sääasema Ruovesi, Lehtissaari

Sääasema Juupajoki

Sääasema Orivesi

Sääasema Muurame

Sääasema Jyväskylä

Sääasema Vihtavuori


Löydät sääaseman tiedot myös:

Finland Weather Exchange

European Weather Network

Weather Underground

AWEKAS



Säätiedot lähimmiltä METAR asemilta

   
EFHA - Halli (Fin-Afb), Finland
Etäisyys asemalta: Kaakko 25 km
Päivitetty: 18.11.2018 12:20
Vähäistä pilvisyyttä  
Vähäistä pilvisyyttä  
   Tuuli: Pohjoiskoillinen 5.1 m/s
Tuuli: Pohjoiskoillinen 5.1 m/s
Lämpötila: 2°C
Tuulen hyytävyys: -2°C
Kastepiste: -3°C
Kosteus: 70%
Ilmanpaine: 1038 hPa
Pilvisyys: Vähäistä pilvisyyttä
Näkyvyys: Enemmän kuin 10 km
Pilvitiedot: Vähäistä pilvisyyttä 793 m
EFHA 181020Z AUTO 02010KT 9999 FEW026 02/M03 Q1038
EFJY - Jyvaskyla (Mil/Civ), Finland
Etäisyys asemalta: Koillinen 75 km
Päivitetty: 18.11.2018 12:20
Melkein pilvistä  
Melkein pilvistä  
   Tuuli: Pohjoiskoillinen 6.7 m/s
Tuuli: Pohjoiskoillinen 6.7 m/s
Lämpötila: 2°C
Tuulen hyytävyys: -3°C
Kastepiste: -4°C
Kosteus: 65%
Ilmanpaine: 1038 hPa
Pilvisyys: Melkein pilvistä
Näkyvyys: Enemmän kuin 10 km
Pilvitiedot: Melkein pilvistä 823 m
EFJY 181020Z AUTO 02013KT 9999 BKN027 02/M04 Q1038
EFTP - Tampere/Pirkkala, Finland
Etäisyys asemalta: Lounas 81 km
Päivitetty: 18.11.2018 12:20
Puolipilvistä  
Puolipilvistä  
   Tuuli: Pohjoinen 5.1 m/s
Tuuli: Pohjoinen 5.1 m/s
Lämpötila: 3°C
Tuulen hyytävyys: -1°C
Kastepiste: -2°C
Kosteus: 70%
Ilmanpaine: 1038 hPa
Pilvisyys: Puolipilvistä
Näkyvyys: Enemmän kuin 10 km
Pilvitiedot: Puolipilvistä 732 m
EFTP 181020Z AUTO 01010KT 9999 SCT024 03/M02 Q1038
EFSI - Seinajoki-Ilmajoki, Finland
Etäisyys asemalta: Luode 114 km
Päivitetty: 18.11.2018 12:20
Selkeää  
Selkeää  
   Tuuli: Pohjoinen 4.1 m/s
Tuuli: Pohjoinen 4.1 m/s
Lämpötila: 1°C
Tuulen hyytävyys: -3°C
Kastepiste: -2°C
Kosteus: 81%
Ilmanpaine: 1041 hPa
Näkyvyys: Enemmän kuin 10 km
Pilvitiedot: Selkeää
EFSI 181020Z AUTO 36008KT 320V040 CAVOK 01/M02 Q1041
EFMI - Mikkeli, Finland
Etäisyys asemalta: Itäkaakko 147 km
Päivitetty: 18.11.2018 12:20
Melkein pilvistä  
Melkein pilvistä  
   Tuuli: Pohjoinen 3.6 m/s
Tuuli: Pohjoinen 3.6 m/s
Lämpötila: 3°C
Tuulen hyytävyys: -1°C
Kastepiste: -4°C
Kosteus: 60%
Ilmanpaine: 1036 hPa
Pilvisyys: Melkein pilvistä
Näkyvyys: Enemmän kuin 10 km
Pilvitiedot: Melkein pilvistä 853 m
EFMI 181020Z AUTO 01007KT 270V080 9999 BKN028 03/M04 Q1036
EFPO - Pori (Mil/Civ), Finland
Etäisyys asemalta: Länsilounas 154 km
Päivitetty: 18.11.2018 12:20
Melkein pilvistä  
Melkein pilvistä  
   Tuuli: Pohjoiskoillinen 3.1 m/s
Tuuli: Pohjoiskoillinen 3.1 m/s
Lämpötila: 3°C
Tuulen hyytävyys: 0°C
Kastepiste: -1°C
Kosteus: 75%
Ilmanpaine: 1039 hPa
Pilvisyys: Melkein pilvistä
Näkyvyys: Enemmän kuin 10 km
Pilvitiedot: Melkein pilvistä 610 m
EFPO 181020Z AUTO 03006KT 320V080 9999 BKN020/// 03/M01 Q1039
EFUT - Utti (Fin-Afb), Finland
Etäisyys asemalta: Kaakko 180 km
Päivitetty: 18.11.2018 12:20
Melkein pilvistä  
Melkein pilvistä  
   Tuuli: Pohjoiskoillinen 7.2 m/s
Tuuli: Pohjoiskoillinen 7.2 m/s
Lämpötila: 3°C
Tuulen hyytävyys: -2°C
Kastepiste: -2°C
Kosteus: 70%
Ilmanpaine: 1034 hPa
Pilvisyys: Melkein pilvistä
Näkyvyys: Enemmän kuin 10 km
Pilvitiedot: Melkein pilvistä 823 m
EFUT 181020Z AUTO 02014KT 340V060 9999 BKN027 03/M02 Q1034
EFVA - Vaasa, Finland
Etäisyys asemalta: Luode 180 km
Päivitetty: 18.11.2018 12:20
Puolipilvistä  
Puolipilvistä  
   Tuuli: Koillinen 4.1 m/s
Tuuli: Koillinen 4.1 m/s
Lämpötila: 3°C
Tuulen hyytävyys: -1°C
Kastepiste: -2°C
Kosteus: 70%
Ilmanpaine: 1042 hPa
Pilvisyys: Puolipilvistä
Näkyvyys: Enemmän kuin 10 km
Pilvitiedot: Puolipilvistä 793 m
EFVA 181020Z AUTO 04008KT 9999 SCT026/// 03/M02 Q1042
EFHK - Helsinki/Vantaa, Finland
Etäisyys asemalta: Etelä 191 km
Päivitetty: 18.11.2018 12:20
Vähäistä pilvisyyttä  
Vähäistä pilvisyyttä  
   Tuuli: Pohjoinen 5.1 m/s
Tuuli: Pohjoinen 5.1 m/s
Lämpötila: 5°C
Tuulen hyytävyys: 1°C
Kastepiste: -1°C
Kosteus: 66%
Ilmanpaine: 1034 hPa
Pilvisyys: Vähäistä pilvisyyttä
Näkyvyys: Enemmän kuin 10 km
Pilvitiedot: Vähäistä pilvisyyttä 914 m
EFHK 181020Z 01010KT 9999 FEW030 05/M01 Q1034 NOSIG

Alkuperäinen skripti  Saratoga-weather.org Sovitettu myös templatelle  Weerstation Leuven

Laitteet joita käytämme:

Sääasema
Davis VP2

Sääasemaohjelma
Cumulus

Sääaseman palvelin
HP ProBook 6460b

Palveluntarjoaja
Radicenter

Davis VP2

Cumulus

HP ProBook 6460b

Radicenter




Flag Counter Cumulus Top Weather Sites